sensor_id;sensor_type;location;lat;lon;timestamp;temperature;humidity
9095;DHT22;4583;49.796;9.902;2023-07-20T00:02:39;20.80;99.90
9095;DHT22;4583;49.796;9.902;2023-07-20T00:12:40;20.70;99.90
9095;DHT22;4583;49.796;9.902;2023-07-20T00:22:42;20.60;99.90
9095;DHT22;4583;49.796;9.902;2023-07-20T00:32:44;20.80;99.90
9095;DHT22;4583;49.796;9.902;2023-07-20T00:42:46;20.70;99.90
9095;DHT22;4583;49.796;9.902;2023-07-20T00:52:48;20.60;99.90
9095;DHT22;4583;49.796;9.902;2023-07-20T01:02:51;20.50;99.80
9095;DHT22;4583;49.796;9.902;2023-07-20T01:12:53;20.40;99.10
9095;DHT22;4583;49.796;9.902;2023-07-20T01:33:17;20.30;98.90
9095;DHT22;4583;49.796;9.902;2023-07-20T01:43:19;20.20;99.00
9095;DHT22;4583;49.796;9.902;2023-07-20T01:53:22;20.20;98.90
9095;DHT22;4583;49.796;9.902;2023-07-20T02:03:23;20.10;98.80
9095;DHT22;4583;49.796;9.902;2023-07-20T02:13:27;20.00;98.50
9095;DHT22;4583;49.796;9.902;2023-07-20T02:23:29;19.80;98.40
9095;DHT22;4583;49.796;9.902;2023-07-20T02:33:30;19.70;98.40
9095;DHT22;4583;49.796;9.902;2023-07-20T02:43:32;19.70;98.30
9095;DHT22;4583;49.796;9.902;2023-07-20T02:53:34;19.70;98.60
9095;DHT22;4583;49.796;9.902;2023-07-20T03:03:36;19.50;97.80
9095;DHT22;4583;49.796;9.902;2023-07-20T03:23:43;19.30;98.10
9095;DHT22;4583;49.796;9.902;2023-07-20T03:33:46;19.20;98.10
9095;DHT22;4583;49.796;9.902;2023-07-20T03:43:48;19.10;98.20
9095;DHT22;4583;49.796;9.902;2023-07-20T03:53:50;19.00;98.20
9095;DHT22;4583;49.796;9.902;2023-07-20T04:03:52;19.00;98.20
9095;DHT22;4583;49.796;9.902;2023-07-20T04:23:57;19.00;98.30
9095;DHT22;4583;49.796;9.902;2023-07-20T04:34:00;19.00;98.00
9095;DHT22;4583;49.796;9.902;2023-07-20T04:44:02;19.10;97.60
9095;DHT22;4583;49.796;9.902;2023-07-20T04:54:04;19.20;97.10
9095;DHT22;4583;49.796;9.902;2023-07-20T05:04:06;19.40;96.50
9095;DHT22;4583;49.796;9.902;2023-07-20T05:14:09;19.40;96.30
9095;DHT22;4583;49.796;9.902;2023-07-20T05:24:11;19.50;96.50
9095;DHT22;4583;49.796;9.902;2023-07-20T05:34:14;19.40;95.70
9095;DHT22;4583;49.796;9.902;2023-07-20T05:44:16;19.40;95.60
9095;DHT22;4583;49.796;9.902;2023-07-20T05:54:17;19.60;95.30
9095;DHT22;4583;49.796;9.902;2023-07-20T06:04:19;19.80;95.00
9095;DHT22;4583;49.796;9.902;2023-07-20T06:14:21;19.90;94.40
9095;DHT22;4583;49.796;9.902;2023-07-20T06:24:22;20.10;93.50
9095;DHT22;4583;49.796;9.902;2023-07-20T06:34:24;20.20;92.60
9095;DHT22;4583;49.796;9.902;2023-07-20T06:44:26;20.40;92.10
9095;DHT22;4583;49.796;9.902;2023-07-20T06:54:28;20.70;91.60
9095;DHT22;4583;49.796;9.902;2023-07-20T07:04:36;20.90;90.50
9095;DHT22;4583;49.796;9.902;2023-07-20T07:14:38;21.10;90.60
9095;DHT22;4583;49.796;9.902;2023-07-20T07:24:40;21.20;90.10
9095;DHT22;4583;49.796;9.902;2023-07-20T07:34:44;21.40;89.50
9095;DHT22;4583;49.796;9.902;2023-07-20T07:44:48;21.30;88.10
9095;DHT22;4583;49.796;9.902;2023-07-20T07:54:49;21.20;87.70
9095;DHT22;4583;49.796;9.902;2023-07-20T08:04:51;20.90;85.80
9095;DHT22;4583;49.796;9.902;2023-07-20T08:14:54;21.40;85.20
9095;DHT22;4583;49.796;9.902;2023-07-20T08:24:55;21.70;82.80
9095;DHT22;4583;49.796;9.902;2023-07-20T08:34:57;22.00;80.40
9095;DHT22;4583;49.796;9.902;2023-07-20T08:44:59;22.20;79.00
9095;DHT22;4583;49.796;9.902;2023-07-20T08:55:02;22.30;76.40
9095;DHT22;4583;49.796;9.902;2023-07-20T09:05:06;22.40;73.30
9095;DHT22;4583;49.796;9.902;2023-07-20T09:15:10;22.40;70.70
9095;DHT22;4583;49.796;9.902;2023-07-20T09:25:14;22.70;70.10
9095;DHT22;4583;49.796;9.902;2023-07-20T09:35:17;22.40;69.20
9095;DHT22;4583;49.796;9.902;2023-07-20T09:45:22;22.60;68.10
9095;DHT22;4583;49.796;9.902;2023-07-20T09:55:44;22.90;66.90
9095;DHT22;4583;49.796;9.902;2023-07-20T10:05:54;22.70;63.00
9095;DHT22;4583;49.796;9.902;2023-07-20T10:16:10;23.10;61.70
9095;DHT22;4583;49.796;9.902;2023-07-20T10:26:13;23.30;62.50
9095;DHT22;4583;49.796;9.902;2023-07-20T10:36:15;23.50;60.40
9095;DHT22;4583;49.796;9.902;2023-07-20T10:56:43;23.60;57.70
9095;DHT22;4583;49.796;9.902;2023-07-20T11:06:46;23.70;57.90
9095;DHT22;4583;49.796;9.902;2023-07-20T11:16:49;24.00;57.20
9095;DHT22;4583;49.796;9.902;2023-07-20T11:26:55;24.20;56.40
9095;DHT22;4583;49.796;9.902;2023-07-20T11:36:56;24.30;54.50
9095;DHT22;4583;49.796;9.902;2023-07-20T11:57:06;24.70;51.90
9095;DHT22;4583;49.796;9.902;2023-07-20T12:07:08;24.80;50.70
9095;DHT22;4583;49.796;9.902;2023-07-20T12:17:09;25.20;51.30
9095;DHT22;4583;49.796;9.902;2023-07-20T12:27:13;25.60;51.30
9095;DHT22;4583;49.796;9.902;2023-07-20T12:37:18;25.70;49.40
9095;DHT22;4583;49.796;9.902;2023-07-20T12:47:19;25.60;49.10
9095;DHT22;4583;49.796;9.902;2023-07-20T12:57:21;25.30;49.80
9095;DHT22;4583;49.796;9.902;2023-07-20T13:07:31;25.10;49.40
9095;DHT22;4583;49.796;9.902;2023-07-20T13:17:37;24.90;49.50
9095;DHT22;4583;49.796;9.902;2023-07-20T13:27:42;25.10;49.50
9095;DHT22;4583;49.796;9.902;2023-07-20T13:37:44;25.20;48.40
9095;DHT22;4583;49.796;9.902;2023-07-20T13:47:46;25.30;48.40
9095;DHT22;4583;49.796;9.902;2023-07-20T13:57:52;25.50;48.10
9095;DHT22;4583;49.796;9.902;2023-07-20T14:07:53;25.20;48.30
9095;DHT22;4583;49.796;9.902;2023-07-20T14:17:55;25.50;47.10
9095;DHT22;4583;49.796;9.902;2023-07-20T14:27:57;25.80;46.80
9095;DHT22;4583;49.796;9.902;2023-07-20T14:37:59;26.40;45.40
9095;DHT22;4583;49.796;9.902;2023-07-20T14:48:01;26.90;46.00
9095;DHT22;4583;49.796;9.902;2023-07-20T14:58:03;26.40;45.50
9095;DHT22;4583;49.796;9.902;2023-07-20T15:08:04;26.00;46.70
9095;DHT22;4583;49.796;9.902;2023-07-20T15:18:07;25.80;46.90
9095;DHT22;4583;49.796;9.902;2023-07-20T15:28:09;26.30;47.20
9095;DHT22;4583;49.796;9.902;2023-07-20T15:38:11;27.30;46.40
9095;DHT22;4583;49.796;9.902;2023-07-20T15:48:13;26.80;46.80
9095;DHT22;4583;49.796;9.902;2023-07-20T15:58:14;26.50;47.30
9095;DHT22;4583;49.796;9.902;2023-07-20T16:08:16;26.40;47.80
9095;DHT22;4583;49.796;9.902;2023-07-20T16:18:18;26.60;48.60
9095;DHT22;4583;49.796;9.902;2023-07-20T16:28:20;27.60;46.30
9095;DHT22;4583;49.796;9.902;2023-07-20T16:38:22;30.80;41.20
9095;DHT22;4583;49.796;9.902;2023-07-20T16:48:24;28.00;42.20
9095;DHT22;4583;49.796;9.902;2023-07-20T16:58:26;27.20;43.20
9095;DHT22;4583;49.796;9.902;2023-07-20T17:08:29;28.10;42.60
9095;DHT22;4583;49.796;9.902;2023-07-20T17:18:34;26.80;43.80
9095;DHT22;4583;49.796;9.902;2023-07-20T17:28:38;28.80;42.40
9095;DHT22;4583;49.796;9.902;2023-07-20T17:38:43;28.90;42.20
9095;DHT22;4583;49.796;9.902;2023-07-20T17:48:45;30.50;40.90
9095;DHT22;4583;49.796;9.902;2023-07-20T17:58:47;31.60;39.10
9095;DHT22;4583;49.796;9.902;2023-07-20T18:08:49;28.90;40.90
9095;DHT22;4583;49.796;9.902;2023-07-20T18:18:50;27.30;42.30
9095;DHT22;4583;49.796;9.902;2023-07-20T18:28:52;26.20;43.60
9095;DHT22;4583;49.796;9.902;2023-07-20T18:38:54;25.70;43.90
9095;DHT22;4583;49.796;9.902;2023-07-20T18:48:58;25.20;44.20
9095;DHT22;4583;49.796;9.902;2023-07-20T18:59:00;24.90;46.00
9095;DHT22;4583;49.796;9.902;2023-07-20T19:09:02;24.40;47.80
9095;DHT22;4583;49.796;9.902;2023-07-20T19:19:04;24.10;49.10
9095;DHT22;4583;49.796;9.902;2023-07-20T19:29:06;23.80;49.90
9095;DHT22;4583;49.796;9.902;2023-07-20T19:39:08;23.60;50.50
9095;DHT22;4583;49.796;9.902;2023-07-20T19:49:10;23.40;51.10
9095;DHT22;4583;49.796;9.902;2023-07-20T19:59:12;23.20;51.50
9095;DHT22;4583;49.796;9.902;2023-07-20T20:09:17;23.00;52.00
9095;DHT22;4583;49.796;9.902;2023-07-20T20:19:19;22.80;52.50
9095;DHT22;4583;49.796;9.902;2023-07-20T20:29:21;22.60;52.60
9095;DHT22;4583;49.796;9.902;2023-07-20T20:39:24;22.60;53.30
9095;DHT22;4583;49.796;9.902;2023-07-20T20:49:27;22.60;53.80
9095;DHT22;4583;49.796;9.902;2023-07-20T20:59:29;22.40;54.20
9095;DHT22;4583;49.796;9.902;2023-07-20T21:09:33;22.20;54.60
9095;DHT22;4583;49.796;9.902;2023-07-20T21:19:35;22.20;55.20
9095;DHT22;4583;49.796;9.902;2023-07-20T21:29:36;22.20;55.60
9095;DHT22;4583;49.796;9.902;2023-07-20T21:39:38;22.10;55.90
9095;DHT22;4583;49.796;9.902;2023-07-20T21:49:40;22.10;56.30
9095;DHT22;4583;49.796;9.902;2023-07-20T21:59:41;22.10;56.20
9095;DHT22;4583;49.796;9.902;2023-07-20T22:09:43;22.10;56.90
9095;DHT22;4583;49.796;9.902;2023-07-20T22:19:45;21.90;56.80
9095;DHT22;4583;49.796;9.902;2023-07-20T22:29:46;21.90;57.00
9095;DHT22;4583;49.796;9.902;2023-07-20T22:39:48;21.80;57.60
9095;DHT22;4583;49.796;9.902;2023-07-20T22:49:50;21.70;57.40
9095;DHT22;4583;49.796;9.902;2023-07-20T22:59:52;21.70;57.50
9095;DHT22;4583;49.796;9.902;2023-07-20T23:09:54;21.60;57.50
9095;DHT22;4583;49.796;9.902;2023-07-20T23:19:57;21.50;57.70
9095;DHT22;4583;49.796;9.902;2023-07-20T23:29:58;21.50;58.20
9095;DHT22;4583;49.796;9.902;2023-07-20T23:40:00;21.30;58.60
9095;DHT22;4583;49.796;9.902;2023-07-20T23:50:04;21.20;58.90
